sensor_id;sensor_type;location;lat;lon;timestamp;P1;durP1;ratioP1;P2;durP2;ratioP2
32455;SDS011;18912;43.270;27.942;2022-08-19T00:01:44;16.02;;;13.18;;
32455;SDS011;18912;43.270;27.942;2022-08-19T00:04:12;18.25;;;13.10;;
32455;SDS011;18912;43.270;27.942;2022-08-19T00:06:40;16.60;;;12.13;;
32455;SDS011;18912;43.270;27.942;2022-08-19T00:09:09;15.43;;;12.45;;
32455;SDS011;18912;43.270;27.942;2022-08-19T00:11:36;19.58;;;12.63;;
32455;SDS011;18912;43.270;27.942;2022-08-19T00:14:03;23.23;;;12.95;;
32455;SDS011;18912;43.270;27.942;2022-08-19T00:16:33;16.30;;;11.93;;
32455;SDS011;18912;43.270;27.942;2022-08-19T00:18:59;15.40;;;11.73;;
32455;SDS011;18912;43.270;27.942;2022-08-19T00:21:25;20.67;;;12.87;;
32455;SDS011;18912;43.270;27.942;2022-08-19T00:26:17;18.35;;;13.13;;
32455;SDS011;18912;43.270;27.942;2022-08-19T00:28:43;18.17;;;13.17;;
32455;SDS011;18912;43.270;27.942;2022-08-19T00:31:09;18.20;;;13.30;;
32455;SDS011;18912;43.270;27.942;2022-08-19T00:33:35;19.67;;;12.70;;
32455;SDS011;18912;43.270;27.942;2022-08-19T00:36:01;22.03;;;13.57;;
32455;SDS011;18912;43.270;27.942;2022-08-19T00:38:31;17.73;;;12.02;;
32455;SDS011;18912;43.270;27.942;2022-08-19T00:40:58;16.42;;;12.02;;
32455;SDS011;18912;43.270;27.942;2022-08-19T00:43:24;22.40;;;13.03;;
32455;SDS011;18912;43.270;27.942;2022-08-19T00:45:51;22.30;;;12.73;;
32455;SDS011;18912;43.270;27.942;2022-08-19T00:48:17;29.05;;;12.18;;
32455;SDS011;18912;43.270;27.942;2022-08-19T00:50:43;18.55;;;13.13;;
32455;SDS011;18912;43.270;27.942;2022-08-19T00:53:14;18.05;;;12.48;;
32455;SDS011;18912;43.270;27.942;2022-08-19T00:55:44;16.73;;;11.88;;
32455;SDS011;18912;43.270;27.942;2022-08-19T00:58:13;18.25;;;12.65;;
32455;SDS011;18912;43.270;27.942;2022-08-19T01:00:42;17.38;;;11.82;;
32455;SDS011;18912;43.270;27.942;2022-08-19T01:03:09;19.60;;;12.70;;
32455;SDS011;18912;43.270;27.942;2022-08-19T01:05:37;19.90;;;12.27;;
32455;SDS011;18912;43.270;27.942;2022-08-19T01:08:06;18.80;;;12.35;;
32455;SDS011;18912;43.270;27.942;2022-08-19T01:13:01;17.83;;;13.23;;
32455;SDS011;18912;43.270;27.942;2022-08-19T01:15:32;22.65;;;12.05;;
32455;SDS011;18912;43.270;27.942;2022-08-19T01:18:01;17.55;;;11.75;;
32455;SDS011;18912;43.270;27.942;2022-08-19T01:20:34;20.17;;;13.32;;
32455;SDS011;18912;43.270;27.942;2022-08-19T01:23:00;18.23;;;12.38;;
32455;SDS011;18912;43.270;27.942;2022-08-19T01:25:31;23.17;;;13.13;;
32455;SDS011;18912;43.270;27.942;2022-08-19T01:28:01;15.30;;;12.15;;
32455;SDS011;18912;43.270;27.942;2022-08-19T01:30:29;20.40;;;13.05;;
32455;SDS011;18912;43.270;27.942;2022-08-19T01:32:58;18.85;;;12.82;;
32455;SDS011;18912;43.270;27.942;2022-08-19T01:35:26;19.35;;;12.95;;
32455;SDS011;18912;43.270;27.942;2022-08-19T01:37:58;15.07;;;12.32;;
32455;SDS011;18912;43.270;27.942;2022-08-19T01:40:29;16.65;;;11.90;;
32455;SDS011;18912;43.270;27.942;2022-08-19T01:42:56;18.08;;;11.95;;
32455;SDS011;18912;43.270;27.942;2022-08-19T01:45:23;18.03;;;12.33;;
32455;SDS011;18912;43.270;27.942;2022-08-19T01:47:50;20.23;;;12.73;;
32455;SDS011;18912;43.270;27.942;2022-08-19T01:50:16;18.93;;;12.40;;
32455;SDS011;18912;43.270;27.942;2022-08-19T01:52:42;15.90;;;12.37;;
32455;SDS011;18912;43.270;27.942;2022-08-19T01:55:11;17.67;;;12.73;;
32455;SDS011;18912;43.270;27.942;2022-08-19T01:57:39;19.00;;;12.30;;
32455;SDS011;18912;43.270;27.942;2022-08-19T02:00:09;18.98;;;12.43;;
32455;SDS011;18912;43.270;27.942;2022-08-19T02:02:40;19.70;;;12.13;;
32455;SDS011;18912;43.270;27.942;2022-08-19T02:05:05;21.43;;;13.40;;
32455;SDS011;18912;43.270;27.942;2022-08-19T02:07:33;18.50;;;12.60;;
32455;SDS011;18912;43.270;27.942;2022-08-19T02:10:07;19.92;;;13.00;;
32455;SDS011;18912;43.270;27.942;2022-08-19T02:12:36;20.40;;;13.35;;
32455;SDS011;18912;43.270;27.942;2022-08-19T02:15:02;24.43;;;14.00;;
32455;SDS011;18912;43.270;27.942;2022-08-19T02:17:29;19.70;;;12.90;;
32455;SDS011;18912;43.270;27.942;2022-08-19T02:22:22;18.85;;;12.30;;
32455;SDS011;18912;43.270;27.942;2022-08-19T02:24:48;17.80;;;11.82;;
32455;SDS011;18912;43.270;27.942;2022-08-19T02:27:13;18.47;;;12.97;;
32455;SDS011;18912;43.270;27.942;2022-08-19T02:29:39;20.55;;;13.02;;
32455;SDS011;18912;43.270;27.942;2022-08-19T02:32:05;19.85;;;12.25;;
32455;SDS011;18912;43.270;27.942;2022-08-19T02:34:31;22.55;;;13.93;;
32455;SDS011;18912;43.270;27.942;2022-08-19T02:36:57;19.73;;;12.83;;
32455;SDS011;18912;43.270;27.942;2022-08-19T02:39:22;15.50;;;12.73;;
32455;SDS011;18912;43.270;27.942;2022-08-19T02:41:48;23.47;;;12.33;;
32455;SDS011;18912;43.270;27.942;2022-08-19T02:44:14;22.70;;;11.90;;
32455;SDS011;18912;43.270;27.942;2022-08-19T02:46:40;22.63;;;13.10;;
32455;SDS011;18912;43.270;27.942;2022-08-19T02:49:06;17.70;;;12.47;;
32455;SDS011;18912;43.270;27.942;2022-08-19T02:51:34;18.20;;;13.02;;
32455;SDS011;18912;43.270;27.942;2022-08-19T02:54:02;18.58;;;13.70;;
32455;SDS011;18912;43.270;27.942;2022-08-19T02:56:29;22.20;;;14.10;;
32455;SDS011;18912;43.270;27.942;2022-08-19T02:58:55;17.40;;;12.98;;
32455;SDS011;18912;43.270;27.942;2022-08-19T03:01:23;25.67;;;13.30;;
32455;SDS011;18912;43.270;27.942;2022-08-19T03:03:51;19.80;;;12.18;;
32455;SDS011;18912;43.270;27.942;2022-08-19T03:06:16;23.87;;;13.80;;
32455;SDS011;18912;43.270;27.942;2022-08-19T03:08:43;24.67;;;13.03;;
32455;SDS011;18912;43.270;27.942;2022-08-19T03:11:14;22.58;;;13.00;;
32455;SDS011;18912;43.270;27.942;2022-08-19T03:13:40;26.48;;;13.98;;
32455;SDS011;18912;43.270;27.942;2022-08-19T03:16:08;18.35;;;13.38;;
32455;SDS011;18912;43.270;27.942;2022-08-19T03:18:34;35.88;;;19.45;;
32455;SDS011;18912;43.270;27.942;2022-08-19T03:21:00;35.73;;;21.17;;
32455;SDS011;18912;43.270;27.942;2022-08-19T03:23:25;28.77;;;16.70;;
32455;SDS011;18912;43.270;27.942;2022-08-19T03:25:51;30.13;;;17.60;;
32455;SDS011;18912;43.270;27.942;2022-08-19T03:28:18;38.33;;;20.35;;
32455;SDS011;18912;43.270;27.942;2022-08-19T03:30:54;36.63;;;17.25;;
32455;SDS011;18912;43.270;27.942;2022-08-19T03:33:21;26.10;;;16.10;;
32455;SDS011;18912;43.270;27.942;2022-08-19T03:35:58;30.55;;;16.15;;
32455;SDS011;18912;43.270;27.942;2022-08-19T03:38:36;28.48;;;15.55;;
32455;SDS011;18912;43.270;27.942;2022-08-19T03:41:04;39.75;;;18.60;;
32455;SDS011;18912;43.270;27.942;2022-08-19T03:43:32;22.73;;;15.45;;
32455;SDS011;18912;43.270;27.942;2022-08-19T03:46:00;29.77;;;15.73;;
32455;SDS011;18912;43.270;27.942;2022-08-19T03:48:27;30.20;;;15.10;;
32455;SDS011;18912;43.270;27.942;2022-08-19T03:50:53;31.80;;;15.33;;
32455;SDS011;18912;43.270;27.942;2022-08-19T03:53:18;69.10;;;27.97;;
32455;SDS011;18912;43.270;27.942;2022-08-19T03:55:44;27.47;;;15.10;;
32455;SDS011;18912;43.270;27.942;2022-08-19T03:58:09;39.17;;;16.13;;
32455;SDS011;18912;43.270;27.942;2022-08-19T04:03:01;36.30;;;14.35;;
32455;SDS011;18912;43.270;27.942;2022-08-19T04:05:28;24.13;;;13.90;;
32455;SDS011;18912;43.270;27.942;2022-08-19T04:07:54;29.98;;;15.85;;
32455;SDS011;18912;43.270;27.942;2022-08-19T04:10:23;26.42;;;17.13;;
32455;SDS011;18912;43.270;27.942;2022-08-19T04:12:49;32.07;;;14.80;;
32455;SDS011;18912;43.270;27.942;2022-08-19T04:15:15;27.63;;;13.87;;
32455;SDS011;18912;43.270;27.942;2022-08-19T04:17:40;19.47;;;13.23;;
32455;SDS011;18912;43.270;27.942;2022-08-19T04:20:06;24.70;;;14.07;;
32455;SDS011;18912;43.270;27.942;2022-08-19T04:22:32;24.27;;;12.67;;
32455;SDS011;18912;43.270;27.942;2022-08-19T04:24:57;21.77;;;12.90;;
32455;SDS011;18912;43.270;27.942;2022-08-19T04:27:23;17.70;;;12.07;;
32455;SDS011;18912;43.270;27.942;2022-08-19T04:29:48;22.57;;;11.90;;
32455;SDS011;18912;43.270;27.942;2022-08-19T04:32:14;20.37;;;12.30;;
32455;SDS011;18912;43.270;27.942;2022-08-19T04:34:40;16.60;;;11.30;;
32455;SDS011;18912;43.270;27.942;2022-08-19T04:37:07;17.80;;;12.10;;
32455;SDS011;18912;43.270;27.942;2022-08-19T04:39:37;14.93;;;11.48;;
32455;SDS011;18912;43.270;27.942;2022-08-19T04:42:22;26.30;;;12.15;;
32455;SDS011;18912;43.270;27.942;2022-08-19T04:45:06;16.27;;;10.80;;
32455;SDS011;18912;43.270;27.942;2022-08-19T04:47:35;18.52;;;10.68;;
32455;SDS011;18912;43.270;27.942;2022-08-19T04:50:05;21.02;;;11.25;;
32455;SDS011;18912;43.270;27.942;2022-08-19T04:52:31;17.67;;;11.20;;
32455;SDS011;18912;43.270;27.942;2022-08-19T04:54:57;23.70;;;10.20;;
32455;SDS011;18912;43.270;27.942;2022-08-19T04:57:23;17.20;;;10.95;;
32455;SDS011;18912;43.270;27.942;2022-08-19T04:59:48;16.23;;;10.67;;
32455;SDS011;18912;43.270;27.942;2022-08-19T05:02:18;18.30;;;10.68;;
32455;SDS011;18912;43.270;27.942;2022-08-19T05:04:43;19.10;;;9.50;;
32455;SDS011;18912;43.270;27.942;2022-08-19T05:07:09;16.67;;;9.57;;
32455;SDS011;18912;43.270;27.942;2022-08-19T05:09:35;16.13;;;9.40;;
32455;SDS011;18912;43.270;27.942;2022-08-19T05:12:00;13.10;;;9.67;;
32455;SDS011;18912;43.270;27.942;2022-08-19T05:14:26;13.60;;;9.40;;
32455;SDS011;18912;43.270;27.942;2022-08-19T05:16:51;18.07;;;8.93;;
32455;SDS011;18912;43.270;27.942;2022-08-19T05:19:17;20.27;;;10.30;;
32455;SDS011;18912;43.270;27.942;2022-08-19T05:22:01;17.20;;;9.18;;
32455;SDS011;18912;43.270;27.942;2022-08-19T05:24:45;58.75;;;10.73;;
32455;SDS011;18912;43.270;27.942;2022-08-19T05:27:11;19.45;;;8.85;;
32455;SDS011;18912;43.270;27.942;2022-08-19T05:29:36;22.20;;;9.23;;
32455;SDS011;18912;43.270;27.942;2022-08-19T05:32:03;82.50;;;11.87;;
32455;SDS011;18912;43.270;27.942;2022-08-19T05:34:30;13.35;;;9.35;;
32455;SDS011;18912;43.270;27.942;2022-08-19T05:36:56;39.05;;;8.57;;
32455;SDS011;18912;43.270;27.942;2022-08-19T05:39:28;20.95;;;8.90;;
32455;SDS011;18912;43.270;27.942;2022-08-19T05:41:56;15.40;;;8.88;;
32455;SDS011;18912;43.270;27.942;2022-08-19T05:44:24;18.90;;;8.18;;
32455;SDS011;18912;43.270;27.942;2022-08-19T05:46:51;20.77;;;9.30;;
32455;SDS011;18912;43.270;27.942;2022-08-19T05:49:18;17.27;;;8.70;;
32455;SDS011;18912;43.270;27.942;2022-08-19T05:51:46;18.10;;;8.55;;
32455;SDS011;18912;43.270;27.942;2022-08-19T05:54:12;14.43;;;8.43;;
32455;SDS011;18912;43.270;27.942;2022-08-19T05:56:39;15.75;;;8.43;;
32455;SDS011;18912;43.270;27.942;2022-08-19T05:59:06;10.98;;;8.23;;
32455;SDS011;18912;43.270;27.942;2022-08-19T06:01:34;16.95;;;8.88;;
32455;SDS011;18912;43.270;27.942;2022-08-19T06:04:01;18.92;;;8.93;;
32455;SDS011;18912;43.270;27.942;2022-08-19T06:06:27;15.75;;;7.88;;
32455;SDS011;18912;43.270;27.942;2022-08-19T06:08:53;18.10;;;8.82;;
32455;SDS011;18912;43.270;27.942;2022-08-19T06:11:21;14.67;;;7.57;;
32455;SDS011;18912;43.270;27.942;2022-08-19T06:13:50;17.60;;;7.85;;
32455;SDS011;18912;43.270;27.942;2022-08-19T06:16:18;12.15;;;7.80;;
32455;SDS011;18912;43.270;27.942;2022-08-19T06:18:46;15.55;;;7.95;;
32455;SDS011;18912;43.270;27.942;2022-08-19T06:21:11;12.63;;;7.85;;
32455;SDS011;18912;43.270;27.942;2022-08-19T06:23:37;16.90;;;8.00;;
32455;SDS011;18912;43.270;27.942;2022-08-19T06:26:04;14.70;;;8.00;;
32455;SDS011;18912;43.270;27.942;2022-08-19T06:28:30;16.43;;;7.97;;
32455;SDS011;18912;43.270;27.942;2022-08-19T06:30:55;18.03;;;8.07;;
32455;SDS011;18912;43.270;27.942;2022-08-19T06:33:20;16.17;;;8.23;;
32455;SDS011;18912;43.270;27.942;2022-08-19T06:35:46;14.33;;;7.93;;
32455;SDS011;18912;43.270;27.942;2022-08-19T06:38:11;17.73;;;8.23;;
32455;SDS011;18912;43.270;27.942;2022-08-19T06:40:37;12.70;;;8.18;;
32455;SDS011;18912;43.270;27.942;2022-08-19T06:43:03;14.98;;;7.72;;
32455;SDS011;18912;43.270;27.942;2022-08-19T06:45:28;16.13;;;8.03;;
32455;SDS011;18912;43.270;27.942;2022-08-19T06:47:55;15.45;;;8.07;;
32455;SDS011;18912;43.270;27.942;2022-08-19T06:50:24;16.20;;;8.43;;
32455;SDS011;18912;43.270;27.942;2022-08-19T06:52:49;18.30;;;8.05;;
32455;SDS011;18912;43.270;27.942;2022-08-19T06:55:15;12.73;;;7.00;;
32455;SDS011;18912;43.270;27.942;2022-08-19T06:57:41;10.68;;;7.25;;
32455;SDS011;18912;43.270;27.942;2022-08-19T07:00:07;15.02;;;7.68;;
32455;SDS011;18912;43.270;27.942;2022-08-19T07:02:38;9.63;;;6.80;;
32455;SDS011;18912;43.270;27.942;2022-08-19T07:05:04;16.35;;;6.97;;
32455;SDS011;18912;43.270;27.942;2022-08-19T07:07:30;15.55;;;7.22;;
32455;SDS011;18912;43.270;27.942;2022-08-19T07:09:56;13.13;;;7.00;;
32455;SDS011;18912;43.270;27.942;2022-08-19T07:12:22;17.30;;;6.93;;
32455;SDS011;18912;43.270;27.942;2022-08-19T07:14:47;14.67;;;6.93;;
32455;SDS011;18912;43.270;27.942;2022-08-19T07:17:14;16.08;;;6.47;;
32455;SDS011;18912;43.270;27.942;2022-08-19T07:19:40;13.55;;;6.90;;
32455;SDS011;18912;43.270;27.942;2022-08-19T07:22:08;12.07;;;7.13;;
32455;SDS011;18912;43.270;27.942;2022-08-19T07:24:34;17.75;;;6.95;;
32455;SDS011;18912;43.270;27.942;2022-08-19T07:27:01;11.02;;;6.90;;
32455;SDS011;18912;43.270;27.942;2022-08-19T07:29:30;15.45;;;7.05;;
32455;SDS011;18912;43.270;27.942;2022-08-19T07:31:58;13.10;;;6.88;;
32455;SDS011;18912;43.270;27.942;2022-08-19T07:34:25;11.45;;;6.25;;
32455;SDS011;18912;43.270;27.942;2022-08-19T07:36:51;38.97;;;7.68;;
32455;SDS011;18912;43.270;27.942;2022-08-19T07:39:18;15.10;;;7.47;;
32455;SDS011;18912;43.270;27.942;2022-08-19T07:41:47;13.07;;;6.15;;
32455;SDS011;18912;43.270;27.942;2022-08-19T07:44:13;14.32;;;6.82;;
32455;SDS011;18912;43.270;27.942;2022-08-19T07:46:40;11.13;;;6.30;;
32455;SDS011;18912;43.270;27.942;2022-08-19T07:49:10;13.45;;;6.22;;
32455;SDS011;18912;43.270;27.942;2022-08-19T07:52:26;16.02;;;5.93;;
32455;SDS011;18912;43.270;27.942;2022-08-19T07:54:34;22.33;;;6.40;;
32455;SDS011;18912;43.270;27.942;2022-08-19T07:57:02;10.77;;;6.30;;
32455;SDS011;18912;43.270;27.942;2022-08-19T07:59:29;22.05;;;5.82;;
32455;SDS011;18912;43.270;27.942;2022-08-19T08:01:55;17.10;;;5.88;;
32455;SDS011;18912;43.270;27.942;2022-08-19T08:04:21;18.45;;;6.35;;
32455;SDS011;18912;43.270;27.942;2022-08-19T08:07:06;9.20;;;5.80;;
32455;SDS011;18912;43.270;27.942;2022-08-19T08:09:52;16.83;;;6.30;;
32455;SDS011;18912;43.270;27.942;2022-08-19T08:12:19;12.85;;;6.40;;
32455;SDS011;18912;43.270;27.942;2022-08-19T08:15:08;12.23;;;6.38;;
32455;SDS011;18912;43.270;27.942;2022-08-19T08:17:44;15.38;;;6.47;;
32455;SDS011;18912;43.270;27.942;2022-08-19T08:20:10;13.85;;;6.50;;
32455;SDS011;18912;43.270;27.942;2022-08-19T08:22:36;10.18;;;5.85;;
32455;SDS011;18912;43.270;27.942;2022-08-19T08:25:25;14.27;;;5.85;;
32455;SDS011;18912;43.270;27.942;2022-08-19T08:27:51;20.65;;;6.20;;
32455;SDS011;18912;43.270;27.942;2022-08-19T08:30:18;15.50;;;5.97;;
32455;SDS011;18912;43.270;27.942;2022-08-19T08:32:46;17.80;;;6.22;;
32455;SDS011;18912;43.270;27.942;2022-08-19T08:37:39;12.20;;;5.53;;
32455;SDS011;18912;43.270;27.942;2022-08-19T08:42:36;15.88;;;6.07;;
32455;SDS011;18912;43.270;27.942;2022-08-19T08:45:11;13.25;;;6.07;;
32455;SDS011;18912;43.270;27.942;2022-08-19T08:47:40;22.13;;;6.70;;
32455;SDS011;18912;43.270;27.942;2022-08-19T08:50:32;13.90;;;5.35;;
32455;SDS011;18912;43.270;27.942;2022-08-19T08:53:01;14.88;;;5.72;;
32455;SDS011;18912;43.270;27.942;2022-08-19T08:55:42;13.02;;;5.57;;
32455;SDS011;18912;43.270;27.942;2022-08-19T08:58:15;9.50;;;5.60;;
32455;SDS011;18912;43.270;27.942;2022-08-19T09:00:46;12.85;;;5.53;;
32455;SDS011;18912;43.270;27.942;2022-08-19T09:03:22;14.98;;;5.60;;
32455;SDS011;18912;43.270;27.942;2022-08-19T09:11:14;13.85;;;5.50;;
32455;SDS011;18912;43.270;27.942;2022-08-19T09:16:25;17.85;;;6.13;;
32455;SDS011;18912;43.270;27.942;2022-08-19T09:18:57;14.70;;;5.47;;
32455;SDS011;18912;43.270;27.942;2022-08-19T09:21:26;16.90;;;5.65;;
32455;SDS011;18912;43.270;27.942;2022-08-19T09:26:19;9.25;;;5.47;;
32455;SDS011;18912;43.270;27.942;2022-08-19T09:28:46;15.80;;;6.07;;
32455;SDS011;18912;43.270;27.942;2022-08-19T09:31:17;13.63;;;5.47;;
32455;SDS011;18912;43.270;27.942;2022-08-19T09:33:46;25.05;;;7.22;;
32455;SDS011;18912;43.270;27.942;2022-08-19T09:36:13;12.45;;;5.65;;
32455;SDS011;18912;43.270;27.942;2022-08-19T09:38:39;15.50;;;5.43;;
32455;SDS011;18912;43.270;27.942;2022-08-19T09:41:07;24.58;;;5.25;;
32455;SDS011;18912;43.270;27.942;2022-08-19T09:43:36;13.70;;;5.10;;
32455;SDS011;18912;43.270;27.942;2022-08-19T09:46:03;14.27;;;5.43;;
32455;SDS011;18912;43.270;27.942;2022-08-19T09:48:31;23.35;;;6.00;;
32455;SDS011;18912;43.270;27.942;2022-08-19T09:53:31;8.75;;;5.22;;
32455;SDS011;18912;43.270;27.942;2022-08-19T09:55:57;16.55;;;5.35;;
32455;SDS011;18912;43.270;27.942;2022-08-19T09:58:22;15.13;;;5.65;;
32455;SDS011;18912;43.270;27.942;2022-08-19T10:00:52;13.00;;;5.22;;
32455;SDS011;18912;43.270;27.942;2022-08-19T10:03:22;13.63;;;5.82;;
32455;SDS011;18912;43.270;27.942;2022-08-19T10:08:15;12.85;;;5.00;;
32455;SDS011;18912;43.270;27.942;2022-08-19T10:10:45;9.63;;;5.50;;
32455;SDS011;18912;43.270;27.942;2022-08-19T10:13:12;22.75;;;5.88;;
32455;SDS011;18912;43.270;27.942;2022-08-19T10:15:39;25.70;;;5.68;;
32455;SDS011;18912;43.270;27.942;2022-08-19T10:18:05;20.55;;;6.30;;
32455;SDS011;18912;43.270;27.942;2022-08-19T10:20:31;16.08;;;5.35;;
32455;SDS011;18912;43.270;27.942;2022-08-19T10:22:57;16.98;;;5.65;;
32455;SDS011;18912;43.270;27.942;2022-08-19T10:25:24;18.40;;;5.78;;
32455;SDS011;18912;43.270;27.942;2022-08-19T10:27:51;10.23;;;5.22;;
32455;SDS011;18912;43.270;27.942;2022-08-19T10:32:44;13.05;;;5.53;;
32455;SDS011;18912;43.270;27.942;2022-08-19T10:35:10;15.80;;;5.07;;
32455;SDS011;18912;43.270;27.942;2022-08-19T10:37:37;19.35;;;5.40;;
32455;SDS011;18912;43.270;27.942;2022-08-19T10:40:05;17.10;;;5.60;;
32455;SDS011;18912;43.270;27.942;2022-08-19T10:42:33;15.55;;;5.68;;
32455;SDS011;18912;43.270;27.942;2022-08-19T10:44:59;12.48;;;5.63;;
32455;SDS011;18912;43.270;27.942;2022-08-19T10:47:25;16.98;;;5.43;;
32455;SDS011;18912;43.270;27.942;2022-08-19T10:49:50;12.23;;;5.03;;
32455;SDS011;18912;43.270;27.942;2022-08-19T10:52:35;12.90;;;5.43;;
32455;SDS011;18912;43.270;27.942;2022-08-19T10:55:05;15.70;;;5.78;;
32455;SDS011;18912;43.270;27.942;2022-08-19T10:57:50;23.17;;;5.40;;
32455;SDS011;18912;43.270;27.942;2022-08-19T11:00:17;16.90;;;5.38;;
32455;SDS011;18912;43.270;27.942;2022-08-19T11:02:45;24.48;;;5.93;;
32455;SDS011;18912;43.270;27.942;2022-08-19T11:05:10;17.20;;;5.75;;
32455;SDS011;18912;43.270;27.942;2022-08-19T11:07:37;13.57;;;5.75;;
32455;SDS011;18912;43.270;27.942;2022-08-19T11:10:04;14.95;;;5.47;;
32455;SDS011;18912;43.270;27.942;2022-08-19T11:12:30;10.38;;;4.82;;
32455;SDS011;18912;43.270;27.942;2022-08-19T11:14:55;12.00;;;5.13;;
32455;SDS011;18912;43.270;27.942;2022-08-19T11:17:21;12.33;;;5.50;;
32455;SDS011;18912;43.270;27.942;2022-08-19T11:19:48;13.73;;;5.95;;
32455;SDS011;18912;43.270;27.942;2022-08-19T11:22:14;15.85;;;5.13;;
32455;SDS011;18912;43.270;27.942;2022-08-19T11:24:40;15.15;;;6.60;;
32455;SDS011;18912;43.270;27.942;2022-08-19T11:27:06;19.77;;;6.72;;
32455;SDS011;18912;43.270;27.942;2022-08-19T11:29:34;23.75;;;7.00;;
32455;SDS011;18912;43.270;27.942;2022-08-19T11:32:04;14.60;;;6.82;;
32455;SDS011;18912;43.270;27.942;2022-08-19T11:34:33;14.05;;;7.22;;
32455;SDS011;18912;43.270;27.942;2022-08-19T11:37:00;23.92;;;7.75;;
32455;SDS011;18912;43.270;27.942;2022-08-19T11:41:53;14.13;;;8.20;;
32455;SDS011;18912;43.270;27.942;2022-08-19T11:44:19;14.02;;;8.23;;
32455;SDS011;18912;43.270;27.942;2022-08-19T11:46:44;19.23;;;8.53;;
32455;SDS011;18912;43.270;27.942;2022-08-19T11:49:12;15.65;;;8.73;;
32455;SDS011;18912;43.270;27.942;2022-08-19T11:51:38;16.38;;;8.00;;
32455;SDS011;18912;43.270;27.942;2022-08-19T11:54:04;16.02;;;7.93;;
32455;SDS011;18912;43.270;27.942;2022-08-19T11:56:31;20.67;;;8.25;;
32455;SDS011;18912;43.270;27.942;2022-08-19T11:58:57;18.92;;;8.40;;
32455;SDS011;18912;43.270;27.942;2022-08-19T12:01:23;22.35;;;7.93;;
32455;SDS011;18912;43.270;27.942;2022-08-19T12:03:51;18.30;;;7.78;;
32455;SDS011;18912;43.270;27.942;2022-08-19T12:06:18;14.90;;;7.55;;
32455;SDS011;18912;43.270;27.942;2022-08-19T12:08:49;16.30;;;8.68;;
32455;SDS011;18912;43.270;27.942;2022-08-19T12:11:15;22.40;;;8.52;;
32455;SDS011;18912;43.270;27.942;2022-08-19T12:13:40;17.15;;;7.47;;
32455;SDS011;18912;43.270;27.942;2022-08-19T12:16:12;16.42;;;7.63;;
32455;SDS011;18912;43.270;27.942;2022-08-19T12:18:43;15.82;;;8.93;;
32455;SDS011;18912;43.270;27.942;2022-08-19T12:21:11;18.95;;;7.65;;
32455;SDS011;18912;43.270;27.942;2022-08-19T12:23:41;14.40;;;7.82;;
32455;SDS011;18912;43.270;27.942;2022-08-19T12:26:09;15.55;;;7.63;;
32455;SDS011;18912;43.270;27.942;2022-08-19T12:28:35;27.67;;;8.65;;
32455;SDS011;18912;43.270;27.942;2022-08-19T12:31:02;16.50;;;7.93;;
32455;SDS011;18912;43.270;27.942;2022-08-19T12:35:59;28.63;;;7.47;;
32455;SDS011;18912;43.270;27.942;2022-08-19T12:38:26;18.65;;;7.38;;
32455;SDS011;18912;43.270;27.942;2022-08-19T12:40:52;18.57;;;7.97;;
32455;SDS011;18912;43.270;27.942;2022-08-19T12:43:17;9.87;;;7.07;;
32455;SDS011;18912;43.270;27.942;2022-08-19T12:45:45;15.57;;;7.53;;
32455;SDS011;18912;43.270;27.942;2022-08-19T12:48:11;22.80;;;7.38;;
32455;SDS011;18912;43.270;27.942;2022-08-19T12:50:40;19.27;;;7.53;;
32455;SDS011;18912;43.270;27.942;2022-08-19T12:53:07;16.75;;;7.43;;
32455;SDS011;18912;43.270;27.942;2022-08-19T12:55:32;21.50;;;7.10;;
32455;SDS011;18912;43.270;27.942;2022-08-19T12:57:58;23.27;;;7.43;;
32455;SDS011;18912;43.270;27.942;2022-08-19T13:00:26;17.85;;;7.20;;
32455;SDS011;18912;43.270;27.942;2022-08-19T13:02:52;21.17;;;7.50;;
32455;SDS011;18912;43.270;27.942;2022-08-19T13:05:18;15.13;;;7.47;;
32455;SDS011;18912;43.270;27.942;2022-08-19T13:07:54;18.45;;;6.70;;
32455;SDS011;18912;43.270;27.942;2022-08-19T13:10:21;20.02;;;7.18;;
32455;SDS011;18912;43.270;27.942;2022-08-19T13:12:49;15.38;;;7.13;;
32455;SDS011;18912;43.270;27.942;2022-08-19T13:15:16;25.58;;;7.00;;
32455;SDS011;18912;43.270;27.942;2022-08-19T13:17:45;22.10;;;6.85;;
32455;SDS011;18912;43.270;27.942;2022-08-19T13:20:14;20.90;;;6.43;;
32455;SDS011;18912;43.270;27.942;2022-08-19T13:22:41;13.52;;;6.97;;
32455;SDS011;18912;43.270;27.942;2022-08-19T13:25:07;21.23;;;7.57;;
32455;SDS011;18912;43.270;27.942;2022-08-19T13:28:10;28.27;;;7.50;;
32455;SDS011;18912;43.270;27.942;2022-08-19T13:30:35;17.00;;;7.10;;
32455;SDS011;18912;43.270;27.942;2022-08-19T13:33:19;13.43;;;7.25;;
32455;SDS011;18912;43.270;27.942;2022-08-19T13:38:12;26.70;;;7.60;;
32455;SDS011;18912;43.270;27.942;2022-08-19T13:40:39;17.55;;;7.20;;
32455;SDS011;18912;43.270;27.942;2022-08-19T13:43:05;14.77;;;7.20;;
32455;SDS011;18912;43.270;27.942;2022-08-19T13:45:32;14.13;;;7.85;;
32455;SDS011;18912;43.270;27.942;2022-08-19T13:47:59;18.20;;;7.40;;
32455;SDS011;18912;43.270;27.942;2022-08-19T13:50:28;23.25;;;7.40;;
32455;SDS011;18912;43.270;27.942;2022-08-19T13:52:56;14.07;;;6.85;;
32455;SDS011;18912;43.270;27.942;2022-08-19T13:55:22;13.75;;;6.07;;
32455;SDS011;18912;43.270;27.942;2022-08-19T14:00:18;16.42;;;7.13;;
32455;SDS011;18912;43.270;27.942;2022-08-19T14:02:46;17.73;;;6.28;;
32455;SDS011;18912;43.270;27.942;2022-08-19T14:05:13;17.92;;;7.05;;
32455;SDS011;18912;43.270;27.942;2022-08-19T14:07:40;14.27;;;6.18;;
32455;SDS011;18912;43.270;27.942;2022-08-19T14:10:07;22.60;;;6.63;;
32455;SDS011;18912;43.270;27.942;2022-08-19T14:12:34;16.40;;;7.00;;
32455;SDS011;18912;43.270;27.942;2022-08-19T14:15:00;21.20;;;6.53;;
32455;SDS011;18912;43.270;27.942;2022-08-19T14:17:28;12.35;;;6.40;;
32455;SDS011;18912;43.270;27.942;2022-08-19T14:19:57;23.63;;;5.93;;
32455;SDS011;18912;43.270;27.942;2022-08-19T14:22:25;19.70;;;6.22;;
32455;SDS011;18912;43.270;27.942;2022-08-19T14:24:52;13.73;;;6.38;;
32455;SDS011;18912;43.270;27.942;2022-08-19T14:27:17;17.87;;;6.33;;
32455;SDS011;18912;43.270;27.942;2022-08-19T14:29:43;18.57;;;6.77;;
32455;SDS011;18912;43.270;27.942;2022-08-19T14:34:34;21.98;;;7.03;;
32455;SDS011;18912;43.270;27.942;2022-08-19T14:37:02;25.42;;;7.25;;
32455;SDS011;18912;43.270;27.942;2022-08-19T14:39:27;26.20;;;6.10;;
32455;SDS011;18912;43.270;27.942;2022-08-19T14:41:53;15.77;;;6.17;;
32455;SDS011;18912;43.270;27.942;2022-08-19T14:44:18;25.30;;;7.03;;
32455;SDS011;18912;43.270;27.942;2022-08-19T14:46:44;15.20;;;7.20;;
32455;SDS011;18912;43.270;27.942;2022-08-19T14:49:10;15.13;;;6.87;;
32455;SDS011;18912;43.270;27.942;2022-08-19T14:51:35;18.63;;;6.40;;
32455;SDS011;18912;43.270;27.942;2022-08-19T14:54:01;17.30;;;6.83;;
32455;SDS011;18912;43.270;27.942;2022-08-19T14:56:27;21.50;;;6.73;;
32455;SDS011;18912;43.270;27.942;2022-08-19T14:58:54;18.80;;;7.05;;
32455;SDS011;18912;43.270;27.942;2022-08-19T15:01:22;18.20;;;6.63;;
32455;SDS011;18912;43.270;27.942;2022-08-19T15:03:47;18.73;;;7.00;;
32455;SDS011;18912;43.270;27.942;2022-08-19T15:06:14;20.65;;;7.15;;
32455;SDS011;18912;43.270;27.942;2022-08-19T15:08:41;24.53;;;7.50;;